Time;durP1;ratioP1;P1;durP2;ratioP2;P2;SDS_P1;SDS_P2;PMS_P1;PMS_P2;Temp;Humidity;BMP_temperature;BMP_pressure;BME280_temperature;BME280_humidity;BME280_pressure;Samples;Min_cycle;Max_cycle;Signal;HPM_P1;HPM_P2
2021/07/12 00:00:36;;;;;;;1.83;1.48;;;23.40;69.00;;;;;;5159520;28;20054;-68
2021/07/12 00:03:09;;;;;;;2.45;1.30;;;23.30;68.80;;;;;;5159068;28;20068;-69
2021/07/12 00:05:41;;;;;;;4.00;1.48;;;23.40;68.80;;;;;;5149150;28;20089;-68
2021/07/12 00:08:14;;;;;;;2.22;1.58;;;23.30;68.70;;;;;;5158020;28;20061;-69
2021/07/12 00:10:46;;;;;;;2.78;1.42;;;23.40;68.80;;;;;;5152652;28;20065;-69
2021/07/12 00:13:19;;;;;;;1.65;1.42;;;23.30;68.60;;;;;;5149349;28;20521;-69
2021/07/12 00:15:51;;;;;;;3.37;1.57;;;23.30;68.50;;;;;;5156008;28;20053;-70
2021/07/12 00:18:24;;;;;;;5.90;1.27;;;23.30;68.20;;;;;;5156535;28;20068;-68
2021/07/12 00:20:56;;;;;;;5.10;1.73;;;23.30;68.30;;;;;;5156671;28;20425;-69
2021/07/12 00:23:29;;;;;;;3.90;1.58;;;23.30;68.30;;;;;;5156513;28;20052;-69
2021/07/12 00:26:03;;;;;;;2.17;1.35;;;23.30;68.30;;;;;;5152166;28;20050;-68
2021/07/12 00:28:35;;;;;;;3.08;1.58;;;23.30;68.20;;;;;;5153453;28;20045;-68
2021/07/12 00:31:08;;;;;;;6.35;1.80;;;23.30;68.20;;;;;;5157075;28;20038;-69
2021/07/12 00:33:41;;;;;;;2.42;1.42;;;23.30;68.20;;;;;;5162911;28;20942;-69
2021/07/12 00:36:13;;;;;;;1.73;1.38;;;23.30;68.10;;;;;;5151566;28;20050;-70
2021/07/12 00:38:45;;;;;;;2.50;1.50;;;23.30;68.10;;;;;;5159846;28;20395;-69
2021/07/12 00:41:19;;;;;;;2.35;1.67;;;23.30;68.00;;;;;;5156474;28;20056;-70
2021/07/12 00:43:52;;;;;;;8.15;1.88;;;23.30;68.50;;;;;;5165376;28;20057;-68
2021/07/12 00:46:24;;;;;;;4.15;1.50;;;23.30;67.80;;;;;;5149707;28;20054;-69
2021/07/12 00:48:57;;;;;;;1.73;1.33;;;23.30;67.80;;;;;;5145430;28;20053;-69
2021/07/12 00:51:30;;;;;;;3.70;1.10;;;23.30;67.60;;;;;;5156099;28;20057;-69
2021/07/12 00:54:03;;;;;;;7.55;1.52;;;23.30;67.70;;;;;;5151191;28;20412;-68
2021/07/12 00:56:38;;;;;;;5.25;1.30;;;23.20;67.70;;;;;;5168949;28;20391;-69
2021/07/12 00:59:10;;;;;;;1.75;1.23;;;23.20;67.50;;;;;;5145010;28;20057;-69
2021/07/12 01:01:46;;;;;;;3.10;1.27;;;23.20;67.40;;;;;;5154918;28;22584;-69
2021/07/12 01:04:19;;;;;;;3.53;1.27;;;23.20;67.50;;;;;;5162885;28;20053;-69
2021/07/12 01:06:53;;;;;;;5.57;1.48;;;23.20;67.70;;;;;;5158084;28;20053;-69
2021/07/12 01:09:25;;;;;;;3.15;1.52;;;23.20;67.50;;;;;;5167654;28;20060;-70
2021/07/12 01:12:25;;;;;;;3.13;1.77;;;23.20;67.40;;;;;;5168656;28;20495;-69
2021/07/12 01:15:03;;;;;;;4.70;1.60;;;23.20;67.20;;;;;;5138732;28;20303;-69
2021/07/12 01:18:33;;;;;;;4.53;1.90;;;23.20;67.30;;;;;;5162120;28;20462;-70
2021/07/12 01:22:04;;;;;;;1.98;1.60;;;23.20;67.20;;;;;;5163618;28;20057;-70
2021/07/12 01:25:04;;;;;;;6.25;1.67;;;23.20;67.30;;;;;;5098458;28;20059;-69
2021/07/12 01:28:10;;;;;;;2.83;1.50;;;23.20;67.30;;;;;;5145512;28;20048;-68
2021/07/12 01:30:42;;;;;;;1.90;1.50;;;23.10;67.20;;;;;;5157069;28;20502;-68
2021/07/12 01:33:36;;;;;;;3.38;1.75;;;23.10;67.20;;;;;;5153048;28;20517;-69
2021/07/12 01:36:23;;;;;;;3.72;2.08;;;23.10;67.00;;;;;;5161349;28;20053;-69
2021/07/12 01:39:19;;;;;;;4.03;1.58;;;23.10;67.00;;;;;;5141380;28;20057;-69
2021/07/12 01:42:22;;;;;;;2.95;1.95;;;23.10;67.00;;;;;;5159186;28;20076;-69
2021/07/12 01:45:09;;;;;;;2.50;1.60;;;23.10;67.00;;;;;;5147581;28;20058;-69
2021/07/12 01:48:06;;;;;;;2.63;1.60;;;23.10;66.90;;;;;;5152618;28;20410;-69
2021/07/12 01:51:00;;;;;;;5.65;1.73;;;23.10;66.90;;;;;;5152081;28;20038;-69
2021/07/12 01:54:08;;;;;;;1.77;1.42;;;23.10;66.70;;;;;;5143259;28;24050;-69
2021/07/12 01:56:58;;;;;;;3.17;1.75;;;23.10;66.70;;;;;;5144967;28;20062;-68
2021/07/12 01:59:37;;;;;;;3.35;1.67;;;23.10;66.80;;;;;;5144097;28;20057;-69
2021/07/12 02:02:14;;;;;;;2.90;1.83;;;23.10;66.80;;;;;;5155057;28;20057;-68
2021/07/12 02:05:01;;;;;;;4.78;1.92;;;23.10;66.70;;;;;;5167178;28;20108;-69
2021/07/12 02:07:37;;;;;;;2.92;1.60;;;23.10;66.70;;;;;;5170662;28;20049;-69
2021/07/12 02:10:11;;;;;;;2.35;1.30;;;23.10;66.60;;;;;;5160047;28;21091;-68
2021/07/12 02:12:56;;;;;;;2.30;1.42;;;23.10;66.60;;;;;;5148662;28;20049;-69
2021/07/12 02:15:30;;;;;;;3.80;1.70;;;23.10;66.50;;;;;;5142339;28;20058;-69
2021/07/12 02:18:09;;;;;;;1.90;1.60;;;23.00;66.40;;;;;;5149745;28;20299;-68
2021/07/12 02:20:47;;;;;;;5.80;2.15;;;23.10;66.40;;;;;;5160493;28;20362;-69
2021/07/12 02:23:23;;;;;;;3.88;1.58;;;23.10;66.40;;;;;;5163235;28;20054;-69
2021/07/12 02:26:00;;;;;;;6.20;1.58;;;23.10;66.20;;;;;;5160072;28;20053;-70
2021/07/12 02:28:33;;;;;;;4.55;1.70;;;23.00;66.20;;;;;;5158232;28;20083;-70
2021/07/12 02:31:08;;;;;;;3.70;1.63;;;23.00;66.10;;;;;;5161933;28;20046;-68
2021/07/12 02:33:42;;;;;;;7.22;1.77;;;23.00;66.10;;;;;;5142802;28;20498;-68
2021/07/12 02:36:18;;;;;;;3.88;1.63;;;23.00;66.10;;;;;;5152343;28;20053;-69
2021/07/12 02:38:56;;;;;;;3.42;1.33;;;23.00;66.00;;;;;;5156080;28;20064;-68
2021/07/12 02:41:30;;;;;;;6.45;1.52;;;23.00;65.80;;;;;;5157632;28;21206;-68
2021/07/12 02:44:05;;;;;;;4.57;1.65;;;23.00;65.80;;;;;;5164991;28;20050;-69
2021/07/12 02:46:39;;;;;;;4.07;1.60;;;23.00;65.70;;;;;;5153910;28;20042;-69
2021/07/12 02:49:12;;;;;;;5.05;1.70;;;23.00;65.60;;;;;;5153377;28;20069;-68
2021/07/12 02:51:57;;;;;;;3.92;1.80;;;23.00;65.70;;;;;;5140900;28;20049;-69
2021/07/12 02:54:35;;;;;;;2.75;1.60;;;23.00;65.70;;;;;;5146864;28;20045;-69
2021/07/12 02:57:14;;;;;;;2.55;1.70;;;23.00;65.80;;;;;;5157740;28;20491;-69
2021/07/12 02:59:47;;;;;;;4.10;1.60;;;23.00;65.70;;;;;;5145475;28;20042;-69
2021/07/12 03:02:19;;;;;;;3.13;1.55;;;23.00;65.70;;;;;;5139821;28;20042;-67
2021/07/12 03:04:52;;;;;;;;;;;23.00;65.80;;;;;;5164948;28;20045;-69
2021/07/12 03:07:33;;;;;;;1.88;1.50;;;22.90;65.80;;;;;;5155892;28;19947;-68
2021/07/12 03:10:11;;;;;;;3.72;1.50;;;23.00;65.80;;;;;;5166467;28;20084;-68
2021/07/12 03:12:53;;;;;;;2.60;1.50;;;23.00;65.60;;;;;;5154784;28;20046;-69
2021/07/12 03:15:40;;;;;;;3.80;1.63;;;23.00;66.20;;;;;;5160588;28;20057;-69
2021/07/12 03:18:25;;;;;;;2.33;1.50;;;23.00;65.50;;;;;;5140824;28;20060;-69
2021/07/12 03:21:03;;;;;;;2.45;1.52;;;23.00;65.30;;;;;;5152573;28;20045;-69
2021/07/12 03:23:41;;;;;;;4.32;1.65;;;22.90;65.20;;;;;;5161688;28;20284;-69
2021/07/12 03:26:17;;;;;;;1.48;1.38;;;22.90;65.10;;;;;;5145189;28;20046;-69
2021/07/12 03:28:53;;;;;;;3.35;1.75;;;23.00;65.20;;;;;;5153874;28;20517;-69
2021/07/12 03:31:28;;;;;;;2.42;1.50;;;22.90;65.10;;;;;;5160683;28;20573;-69
2021/07/12 03:34:03;;;;;;;2.75;1.50;;;22.90;65.00;;;;;;5150569;28;20046;-69
2021/07/12 03:36:36;;;;;;;4.22;1.52;;;22.90;64.90;;;;;;5156526;28;20537;-69
2021/07/12 03:39:09;;;;;;;5.07;1.73;;;22.90;64.80;;;;;;5163250;28;20064;-71
2021/07/12 03:41:42;;;;;;;3.37;1.30;;;22.90;64.90;;;;;;5163091;28;20057;-69
2021/07/12 03:44:17;;;;;;;1.65;1.30;;;22.90;64.90;;;;;;5159706;28;20041;-68
2021/07/12 03:46:49;;;;;;;7.38;1.25;;;22.90;64.80;;;;;;5148130;28;20422;-69
2021/07/12 03:49:21;;;;;;;3.65;1.30;;;22.90;64.70;;;;;;5157829;28;20050;-68
2021/07/12 03:51:54;;;;;;;3.38;1.40;;;22.90;64.70;;;;;;5147855;28;20065;-69
2021/07/12 03:54:27;;;;;;;3.83;1.30;;;22.90;64.70;;;;;;5166136;28;20754;-68
2021/07/12 03:56:59;;;;;;;1.83;1.50;;;22.90;64.60;;;;;;5136861;28;20061;-68
2021/07/12 03:59:31;;;;;;;5.30;1.52;;;22.90;64.70;;;;;;5151064;28;20072;-67
2021/07/12 04:02:04;;;;;;;2.47;1.77;;;22.90;65.40;;;;;;5136855;28;20250;-68
2021/07/12 04:04:36;;;;;;;2.42;1.40;;;22.90;66.20;;;;;;5151076;28;20046;-69
2021/07/12 04:07:09;;;;;;;3.08;1.30;;;22.90;66.60;;;;;;5140440;28;20056;-69
2021/07/12 04:09:41;;;;;;;1.98;1.25;;;22.90;66.80;;;;;;5150699;28;20060;-69
2021/07/12 04:12:22;;;;;;;5.03;1.50;;;23.00;67.00;;;;;;5144884;28;20038;-68
2021/07/12 04:14:54;;;;;;;1.88;1.27;;;23.00;67.00;;;;;;5145906;28;20053;-68
2021/07/12 04:17:27;;;;;;;1.67;1.20;;;23.00;67.20;;;;;;5157008;28;20054;-69
2021/07/12 04:19:59;;;;;;;2.45;1.00;;;23.00;67.20;;;;;;5146009;28;20041;-69
2021/07/12 04:22:32;;;;;;;2.30;1.30;;;23.00;67.30;;;;;;5151220;28;20060;-69
2021/07/12 04:25:05;;;;;;;2.05;1.27;;;23.00;67.40;;;;;;5152175;28;20049;-68
2021/07/12 04:27:39;;;;;;;1.20;1.10;;;23.00;67.50;;;;;;5150522;28;20504;-67
2021/07/12 04:30:11;;;;;;;;;;;23.00;67.50;;;;;;5146222;28;20030;-69
2021/07/12 04:32:44;;;;;;;2.03;1.13;;;23.00;67.70;;;;;;5145595;28;20500;-68
2021/07/12 04:35:16;;;;;;;2.17;1.20;;;23.00;67.70;;;;;;5147796;28;20045;-68
2021/07/12 04:37:49;;;;;;;6.97;1.45;;;23.00;67.80;;;;;;5153730;28;20057;-69
2021/07/12 04:40:24;;;;;;;4.40;1.30;;;23.00;67.90;;;;;;5154537;28;20049;-69
2021/07/12 04:42:56;;;;;;;3.22;1.30;;;23.10;68.00;;;;;;5159143;28;20418;-69
2021/07/12 04:45:28;;;;;;;1.40;1.17;;;23.10;68.10;;;;;;5125348;28;20057;-68
2021/07/12 04:48:01;;;;;;;2.30;1.65;;;23.10;68.10;;;;;;5145461;28;20046;-67
2021/07/12 04:50:36;;;;;;;1.73;1.02;;;23.10;68.20;;;;;;5143756;28;20046;-68
2021/07/12 04:53:13;;;;;;;2.72;1.30;;;23.10;68.20;;;;;;5152140;28;20049;-69
2021/07/12 04:55:45;;;;;;;3.25;1.30;;;23.10;68.30;;;;;;5157529;28;20115;-69
2021/07/12 04:58:17;;;;;;;9.65;2.03;;;23.10;68.30;;;;;;5138252;28;20053;-69
2021/07/12 05:00:50;;;;;;;5.93;2.10;;;23.10;68.40;;;;;;5132002;28;20525;-69
2021/07/12 05:03:31;;;;;;;10.55;1.85;;;23.10;68.60;;;;;;5131707;28;20498;-69
2021/07/12 05:06:03;;;;;;;10.75;2.47;;;23.10;68.60;;;;;;5143072;28;20045;-69
2021/07/12 05:08:36;;;;;;;10.85;2.17;;;23.10;68.60;;;;;;5153294;28;20072;-70
2021/07/12 05:11:09;;;;;;;14.40;2.63;;;23.20;68.50;;;;;;5137117;28;20046;-69
2021/07/12 05:13:43;;;;;;;12.77;2.85;;;23.10;68.50;;;;;;5138110;28;20045;-69
2021/07/12 05:16:16;;;;;;;17.83;2.20;;;23.20;68.50;;;;;;5147070;28;20046;-69
2021/07/12 05:18:48;;;;;;;8.63;1.70;;;23.10;68.50;;;;;;5134147;28;20062;-69
2021/07/12 05:21:21;;;;;;;9.07;2.08;;;23.10;68.30;;;;;;5133372;28;20430;-69
2021/07/12 05:23:53;;;;;;;8.13;1.90;;;23.20;68.30;;;;;;5125267;28;20653;-71
2021/07/12 05:26:26;;;;;;;13.38;2.33;;;23.20;68.30;;;;;;5135835;28;20050;-68
2021/07/12 05:28:58;;;;;;;10.95;2.00;;;23.10;68.20;;;;;;5126034;28;20050;-68
2021/07/12 05:31:30;;;;;;;8.98;1.85;;;23.10;68.20;;;;;;5136830;28;20049;-69
2021/07/12 05:34:07;;;;;;;5.82;1.95;;;23.10;68.20;;;;;;5131179;28;20050;-69
2021/07/12 05:36:40;;;;;;;8.18;2.00;;;23.10;68.20;;;;;;5129589;28;20046;-70
2021/07/12 05:39:13;;;;;;;9.02;2.13;;;23.20;68.20;;;;;;5137296;28;20057;-70
2021/07/12 05:41:47;;;;;;;10.95;2.08;;;23.20;68.20;;;;;;5150599;28;20070;-69
2021/07/12 05:44:19;;;;;;;10.52;1.70;;;23.10;68.20;;;;;;5146326;28;20046;-69
2021/07/12 05:46:51;;;;;;;6.72;1.70;;;23.10;68.20;;;;;;5152950;28;20045;-68
2021/07/12 05:49:24;;;;;;;4.88;1.67;;;23.10;68.20;;;;;;5155272;28;20049;-69
2021/07/12 05:51:56;;;;;;;7.63;1.90;;;23.20;68.30;;;;;;5149189;28;20061;-69
2021/07/12 05:54:29;;;;;;;3.03;1.52;;;23.20;68.30;;;;;;5148796;28;20046;-69
2021/07/12 05:57:01;;;;;;;7.28;2.00;;;23.20;68.30;;;;;;5150387;28;20070;-70
2021/07/12 05:59:34;;;;;;;7.93;1.33;;;23.20;68.30;;;;;;5154111;28;20049;-69
2021/07/12 06:02:07;;;;;;;6.72;2.00;;;23.20;68.30;;;;;;5149877;28;20065;-69
2021/07/12 06:04:39;;;;;;;;;;;23.20;68.30;;;;;;5150382;28;20065;-70
2021/07/12 06:07:12;;;;;;;5.20;1.73;;;23.10;68.30;;;;;;5153172;28;19944;-68
2021/07/12 06:09:44;;;;;;;7.50;1.73;;;23.10;68.30;;;;;;5154101;28;20049;-69
2021/07/12 06:12:17;;;;;;;5.63;2.17;;;23.20;68.40;;;;;;5152152;28;20703;-68
2021/07/12 06:14:49;;;;;;;5.25;2.00;;;23.20;68.40;;;;;;5148238;28;20054;-68
2021/07/12 06:17:21;;;;;;;7.28;1.73;;;23.20;68.40;;;;;;5152681;28;20398;-68
2021/07/12 06:19:54;;;;;;;4.38;1.80;;;23.20;68.40;;;;;;5152320;28;20514;-68
2021/07/12 06:22:26;;;;;;;3.25;1.80;;;23.20;68.40;;;;;;5148006;28;20084;-68
2021/07/12 06:24:59;;;;;;;9.55;1.70;;;23.20;68.40;;;;;;5149930;28;20054;-69
2021/07/12 06:27:31;;;;;;;6.32;1.70;;;23.20;68.40;;;;;;5159014;28;20046;-68
2021/07/12 06:30:06;;;;;;;6.13;1.63;;;23.20;68.40;;;;;;5143624;28;20041;-68
2021/07/12 06:32:38;;;;;;;7.10;1.55;;;23.20;68.40;;;;;;5148649;28;20054;-69
2021/07/12 06:35:11;;;;;;;2.53;1.33;;;23.20;68.40;;;;;;5150735;28;20060;-69
2021/07/12 06:37:43;;;;;;;4.43;1.48;;;23.20;68.50;;;;;;5142244;28;20955;-69
2021/07/12 06:40:16;;;;;;;3.95;1.50;;;23.20;68.50;;;;;;5144993;28;20053;-68
2021/07/12 06:42:49;;;;;;;2.15;1.50;;;23.20;68.50;;;;;;5149446;28;20053;-69
2021/07/12 06:45:23;;;;;;;6.53;1.90;;;23.20;68.50;;;;;;5151740;28;20046;-69
2021/07/12 06:47:56;;;;;;;3.50;1.60;;;23.20;68.50;;;;;;5152808;28;21478;-68
2021/07/12 06:50:29;;;;;;;8.53;1.90;;;23.20;68.50;;;;;;5163317;28;20046;-68
2021/07/12 06:53:01;;;;;;;2.83;1.30;;;23.20;68.50;;;;;;5151541;28;20305;-67
2021/07/12 06:55:34;;;;;;;2.78;1.52;;;23.20;68.50;;;;;;5146782;28;20049;-67
2021/07/12 06:58:10;;;;;;;2.60;1.50;;;23.20;68.50;;;;;;5150654;28;20062;-68
2021/07/12 07:00:42;;;;;;;4.60;1.80;;;23.20;68.60;;;;;;5142092;28;20577;-68
2021/07/12 07:03:15;;;;;;;4.70;1.35;;;23.30;68.60;;;;;;5156372;28;20050;-67
2021/07/12 07:05:47;;;;;;;11.75;1.65;;;23.20;68.70;;;;;;5151767;28;20038;-68
2021/07/12 07:08:46;;;;;;;2.55;1.50;;;23.20;68.70;;;;;;5151459;28;20054;-69
2021/07/12 07:11:18;;;;;;;2.83;1.80;;;23.20;68.80;;;;;;5153722;28;20053;-69
2021/07/12 07:13:53;;;;;;;4.22;1.60;;;23.20;68.80;;;;;;5167434;28;20511;-68
2021/07/12 07:16:25;;;;;;;2.20;1.10;;;23.30;68.90;;;;;;5155013;28;20050;-68
2021/07/12 07:18:58;;;;;;;3.97;1.63;;;23.30;68.90;;;;;;5157113;28;20046;-68
2021/07/12 07:21:30;;;;;;;1.95;1.55;;;23.30;69.00;;;;;;5147826;28;20062;-69
2021/07/12 07:24:03;;;;;;;4.72;1.35;;;23.30;69.00;;;;;;5150157;28;20310;-68
2021/07/12 07:26:36;;;;;;;4.30;1.42;;;23.30;69.00;;;;;;5143786;28;20049;-68
2021/07/12 07:29:08;;;;;;;9.50;1.67;;;23.30;69.00;;;;;;5150789;28;20113;-68
2021/07/12 07:31:41;;;;;;;4.30;1.60;;;23.30;69.00;;;;;;5155281;28;20050;-68
2021/07/12 07:34:22;;;;;;;6.03;1.50;;;23.30;69.10;;;;;;5153636;28;20045;-69
2021/07/12 07:36:58;;;;;;;5.72;1.58;;;23.30;69.10;;;;;;5152569;28;20057;-69
2021/07/12 07:39:30;;;;;;;3.28;1.73;;;23.30;69.10;;;;;;5155081;28;20054;-69
2021/07/12 07:42:23;;;;;;;5.28;1.35;;;23.30;69.10;;;;;;5153455;28;20057;-68
2021/07/12 07:44:57;;;;;;;4.33;1.87;;;23.30;69.10;;;;;;5150424;28;20045;-68
2021/07/12 07:47:30;;;;;;;6.13;1.48;;;23.30;69.10;;;;;;5148463;28;20061;-67
2021/07/12 07:50:22;;;;;;;3.83;1.50;;;23.30;69.20;;;;;;5153447;28;20046;-68
2021/07/12 07:52:55;;;;;;;3.10;1.63;;;23.30;69.30;;;;;;5152208;28;20046;-69
2021/07/12 07:55:27;;;;;;;4.73;1.50;;;23.30;69.30;;;;;;5143101;28;20058;-70
2021/07/12 07:58:00;;;;;;;4.15;1.55;;;23.30;69.20;;;;;;5147598;28;20046;-68
2021/07/12 08:00:32;;;;;;;5.72;1.50;;;23.30;69.20;;;;;;5148711;28;20042;-68
2021/07/12 08:03:05;;;;;;;5.75;1.80;;;23.30;69.20;;;;;;5140474;28;20194;-70
2021/07/12 08:05:37;;;;;;;3.85;1.60;;;23.30;69.10;;;;;;5146517;28;20050;-70
2021/07/12 08:08:10;;;;;;;2.97;1.42;;;23.30;69.20;;;;;;5147930;28;20048;-69
2021/07/12 08:10:42;;;;;;;1.67;1.40;;;23.30;69.10;;;;;;5163234;28;20041;-68
2021/07/12 08:13:15;;;;;;;3.20;1.30;;;23.30;69.10;;;;;;5167121;28;20130;-68
2021/07/12 08:15:47;;;;;;;3.67;1.47;;;23.30;69.10;;;;;;5169708;28;20406;-69
2021/07/12 08:18:22;;;;;;;2.30;1.33;;;23.30;69.10;;;;;;5168580;28;21470;-69
2021/07/12 08:20:54;;;;;;;2.42;1.50;;;23.30;69.10;;;;;;5154676;28;20053;-69
2021/07/12 08:23:26;;;;;;;5.97;1.58;;;23.30;69.10;;;;;;5169993;28;20053;-69
2021/07/12 08:25:59;;;;;;;10.23;2.00;;;23.30;69.20;;;;;;5174088;28;20053;-68
2021/07/12 08:28:32;;;;;;;4.70;1.63;;;23.30;69.20;;;;;;5165071;28;20057;-69
2021/07/12 08:31:05;;;;;;;3.67;2.35;;;23.30;69.20;;;;;;5167623;28;20057;-69
2021/07/12 08:33:38;;;;;;;2.03;1.57;;;23.30;69.30;;;;;;5148015;28;20045;-68
2021/07/12 08:36:13;;;;;;;;;;;23.30;69.30;;;;;;5170395;28;20297;-68
2021/07/12 08:38:45;;;;;;;4.50;1.52;;;23.30;69.40;;;;;;5167313;28;19961;-69
2021/07/12 08:41:21;;;;;;;3.33;1.63;;;23.30;69.40;;;;;;5156171;28;20112;-69
2021/07/12 08:43:53;;;;;;;4.38;1.83;;;23.30;69.50;;;;;;5161576;28;20525;-68
2021/07/12 08:46:26;;;;;;;7.87;1.60;;;23.30;69.50;;;;;;5164155;28;20411;-69
2021/07/12 08:48:58;;;;;;;5.28;1.77;;;23.40;69.60;;;;;;5162239;28;20045;-72
2021/07/12 08:51:31;;;;;;;6.85;1.50;;;23.40;69.60;;;;;;5162888;28;20054;-71
2021/07/12 08:54:03;;;;;;;4.40;1.40;;;23.40;69.60;;;;;;5161788;28;20045;-71
2021/07/12 08:56:36;;;;;;;3.20;1.55;;;23.40;69.60;;;;;;5159009;28;20042;-72
2021/07/12 08:59:31;;;;;;;2.78;1.40;;;23.40;69.60;;;;;;5151130;28;20057;-68
2021/07/12 09:02:19;;;;;;;3.38;1.67;;;23.40;69.50;;;;;;5149415;28;20545;-69
2021/07/12 09:04:55;;;;;;;5.90;1.40;;;23.40;69.50;;;;;;5155656;28;20049;-70
2021/07/12 09:07:29;;;;;;;3.17;1.50;;;23.40;69.60;;;;;;5162032;28;20533;-71
2021/07/12 09:10:11;;;;;;;5.40;1.58;;;23.40;69.70;;;;;;5158009;28;20053;-69
2021/07/12 09:12:47;;;;;;;3.03;1.73;;;23.40;69.80;;;;;;5160216;28;20052;-69
2021/07/12 09:15:22;;;;;;;2.03;1.50;;;23.40;69.80;;;;;;5163436;28;20060;-71
2021/07/12 09:17:55;;;;;;;3.88;1.67;;;23.40;69.80;;;;;;5169550;28;20053;-71
2021/07/12 09:20:29;;;;;;;2.75;1.42;;;23.40;69.80;;;;;;5152111;28;20766;-70
2021/07/12 09:23:21;;;;;;;3.25;1.80;;;23.40;69.70;;;;;;5163212;28;20128;-70
2021/07/12 09:26:04;;;;;;;2.03;1.60;;;23.40;69.60;;;;;;5162669;28;20054;-71
2021/07/12 09:28:41;;;;;;;1.88;1.45;;;23.40;69.50;;;;;;5138926;28;20073;-71
2021/07/12 09:31:29;;;;;;;3.60;1.60;;;23.40;69.40;;;;;;5137304;28;20060;-71
2021/07/12 09:34:02;;;;;;;3.45;1.67;;;23.40;69.30;;;;;;5159416;28;20048;-71
2021/07/12 09:36:39;;;;;;;2.00;1.60;;;23.40;69.30;;;;;;5163100;28;20045;-70
2021/07/12 09:39:17;;;;;;;2.10;1.88;;;23.40;69.10;;;;;;5161470;28;20798;-70
2021/07/12 09:41:51;;;;;;;3.83;1.92;;;23.40;69.00;;;;;;5160546;28;20048;-71
2021/07/12 09:44:26;;;;;;;3.72;1.60;;;23.40;69.00;;;;;;5163956;28;20057;-71
2021/07/12 09:47:09;;;;;;;1.60;1.50;;;23.40;69.00;;;;;;5161455;28;20057;-71
2021/07/12 09:49:42;;;;;;;2.33;1.70;;;23.40;69.00;;;;;;5168595;28;20422;-71
2021/07/12 09:52:15;;;;;;;;;;;23.40;68.90;;;;;;5168794;28;20045;-70
2021/07/12 09:54:49;;;;;;;3.40;1.70;;;23.40;68.80;;;;;;5159274;28;20047;-71
2021/07/12 09:57:28;;;;;;;2.05;1.48;;;23.40;68.80;;;;;;5153592;28;21009;-69
2021/07/12 10:00:06;;;;;;;1.73;1.42;;;23.40;68.80;;;;;;5164419;28;20049;-72
2021/07/12 10:02:51;;;;;;;;;;;23.40;68.70;;;;;;5158966;28;20057;-71
2021/07/12 10:05:24;;;;;;;4.38;1.90;;;23.40;68.80;;;;;;5161892;28;20433;-71
2021/07/12 10:07:57;;;;;;;4.32;1.92;;;23.40;68.90;;;;;;5172567;28;20057;-72
2021/07/12 10:10:30;;;;;;;5.30;2.13;;;23.40;68.90;;;;;;5171827;28;20045;-70
2021/07/12 10:13:04;;;;;;;6.13;2.13;;;23.50;69.00;;;;;;5175496;28;20042;-69
2021/07/12 10:15:37;;;;;;;4.93;1.83;;;23.50;69.00;;;;;;5172321;28;20536;-72
2021/07/12 10:18:10;;;;;;;2.25;1.77;;;23.50;69.10;;;;;;5156046;28;20046;-71
2021/07/12 10:20:43;;;;;;;2.83;1.40;;;23.50;69.10;;;;;;5157646;28;20403;-71
2021/07/12 10:23:17;;;;;;;7.82;1.98;;;23.50;69.10;;;;;;5170990;28;20045;-71
2021/07/12 10:25:55;;;;;;;3.42;1.48;;;23.50;69.20;;;;;;5145579;28;20053;-69
2021/07/12 10:28:47;;;;;;;;;;;23.50;69.20;;;;;;5171160;28;20056;-71
2021/07/12 10:31:22;;;;;;;3.25;1.73;;;23.50;69.20;;;;;;5171457;28;19929;-71
2021/07/12 10:33:55;;;;;;;2.67;2.03;;;23.50;69.20;;;;;;5161142;28;20250;-71
2021/07/12 10:36:39;;;;;;;3.05;1.73;;;23.50;69.30;;;;;;5170710;28;20094;-71
2021/07/12 10:39:11;;;;;;;2.70;1.80;;;23.50;69.30;;;;;;5170957;28;20516;-71
2021/07/12 10:41:50;;;;;;;5.60;1.85;;;23.50;69.30;;;;;;5170861;28;20139;-71
2021/07/12 10:44:23;;;;;;;2.80;1.58;;;23.50;69.30;;;;;;5170011;28;20053;-70
2021/07/12 10:46:55;;;;;;;2.72;2.00;;;23.60;69.40;;;;;;5168958;28;20049;-70
2021/07/12 10:49:37;;;;;;;2.95;1.65;;;23.60;69.40;;;;;;5167036;28;20581;-71
2021/07/12 10:52:44;;;;;;;2.75;1.60;;;23.60;69.40;;;;;;5150611;28;20418;-71
2021/07/12 10:55:32;;;;;;;2.22;1.80;;;23.60;69.40;;;;;;5156723;28;20057;-72
2021/07/12 10:58:26;;;;;;;4.85;1.80;;;23.60;69.40;;;;;;5143218;28;20480;-71
2021/07/12 11:01:02;;;;;;;3.55;1.70;;;23.60;69.50;;;;;;5161149;28;20034;-72
2021/07/12 11:03:40;;;;;;;5.82;1.88;;;23.60;69.50;;;;;;5170205;28;20054;-71
2021/07/12 11:06:21;;;;;;;7.72;1.70;;;23.60;69.60;;;;;;5163453;28;20057;-69
2021/07/12 11:08:58;;;;;;;5.50;1.33;;;23.60;69.60;;;;;;5167109;28;20772;-71
2021/07/12 11:11:31;;;;;;;4.95;1.50;;;23.60;69.60;;;;;;5167199;28;20686;-72
2021/07/12 11:14:08;;;;;;;2.72;1.40;;;23.60;69.60;;;;;;5167120;28;20545;-71
2021/07/12 11:16:45;;;;;;;2.95;1.80;;;23.70;69.60;;;;;;5137839;28;21367;-69
2021/07/12 11:19:24;;;;;;;6.75;1.80;;;23.70;69.60;;;;;;5127176;28;20439;-71
2021/07/12 11:22:15;;;;;;;2.92;1.73;;;23.70;69.60;;;;;;5160497;28;21076;-71
2021/07/12 11:25:04;;;;;;;5.50;1.88;;;23.70;69.50;;;;;;5155610;28;20050;-70
2021/07/12 11:27:40;;;;;;;7.30;2.00;;;23.80;69.50;;;;;;5169021;28;20592;-71
2021/07/12 11:30:29;;;;;;;5.60;1.95;;;23.80;69.50;;;;;;5152559;28;20037;-71
2021/07/12 11:33:02;;;;;;;4.80;1.50;;;23.80;69.50;;;;;;5159452;28;20438;-71
2021/07/12 11:35:35;;;;;;;2.77;1.90;;;23.90;69.50;;;;;;5157835;28;20371;-71
2021/07/12 11:38:09;;;;;;;2.63;1.77;;;23.90;69.50;;;;;;5153304;28;20053;-71
2021/07/12 11:40:41;;;;;;;3.38;1.88;;;23.90;69.40;;;;;;5118437;28;20068;-70
2021/07/12 11:43:25;;;;;;;3.03;1.60;;;23.90;69.50;;;;;;5154004;28;20057;-70
2021/07/12 11:45:59;;;;;;;3.03;2.05;;;23.90;69.50;;;;;;5149317;28;20058;-72
2021/07/12 11:48:31;;;;;;;4.75;1.92;;;23.80;69.50;;;;;;5164142;28;20053;-72
2021/07/12 11:51:13;;;;;;;2.10;1.70;;;23.90;69.60;;;;;;5163599;28;20050;-70
2021/07/12 11:53:46;;;;;;;4.05;1.77;;;23.90;69.60;;;;;;5163310;28;20549;-71
2021/07/12 11:56:19;;;;;;;15.38;2.67;;;23.90;69.60;;;;;;5163680;28;20073;-69
2021/07/12 11:58:56;;;;;;;7.10;1.80;;;23.90;69.70;;;;;;5167388;28;21245;-71
2021/07/12 12:01:28;;;;;;;13.25;2.20;;;23.90;69.70;;;;;;5172656;28;20441;-72
2021/07/12 12:04:03;;;;;;;4.75;1.90;;;24.00;69.80;;;;;;5173111;28;20506;-73
2021/07/12 12:06:35;;;;;;;8.05;2.20;;;24.00;69.80;;;;;;5169593;28;20049;-72
2021/07/12 12:09:07;;;;;;;8.10;2.50;;;24.00;69.90;;;;;;5173961;28;20057;-71
2021/07/12 12:11:40;;;;;;;5.93;1.92;;;24.10;69.90;;;;;;5165842;28;20054;-72
2021/07/12 12:14:21;;;;;;;11.63;2.07;;;24.00;69.80;;;;;;5171332;28;20319;-72
2021/07/12 12:16:54;;;;;;;8.40;1.98;;;24.00;70.40;;;;;;5163499;28;20050;-71
2021/07/12 12:19:26;;;;;;;5.68;2.50;;;24.00;69.80;;;;;;5136950;28;20502;-72
2021/07/12 12:21:58;;;;;;;10.80;2.30;;;24.00;69.90;;;;;;5150726;28;20041;-70
2021/07/12 12:24:31;;;;;;;6.80;2.22;;;24.10;70.50;;;;;;5167331;28;20068;-72
2021/07/12 12:27:03;;;;;;;9.07;2.63;;;24.10;71.10;;;;;;5157927;28;20484;-71
2021/07/12 12:29:36;;;;;;;12.03;2.10;;;24.10;71.10;;;;;;5166108;28;20053;-71
2021/07/12 12:32:08;;;;;;;4.88;2.20;;;24.20;71.00;;;;;;5166033;28;20041;-74
2021/07/12 12:34:42;;;;;;;9.32;3.00;;;24.20;70.70;;;;;;5162997;28;20045;-71
2021/07/12 12:37:15;;;;;;;6.15;2.10;;;24.30;70.50;;;;;;5166661;28;20275;-70
2021/07/12 12:39:47;;;;;;;4.43;2.80;;;24.30;70.60;;;;;;5147874;28;20064;-70
2021/07/12 12:42:27;;;;;;;10.65;2.40;;;24.30;70.70;;;;;;5150163;28;20068;-71
2021/07/12 12:44:59;;;;;;;11.23;2.42;;;24.40;71.70;;;;;;5163379;28;20061;-69
2021/07/12 12:47:32;;;;;;;8.32;2.65;;;24.40;70.50;;;;;;5150846;28;20060;-70
2021/07/12 12:50:15;;;;;;;4.00;1.95;;;24.40;70.20;;;;;;5158950;28;20049;-70
2021/07/12 12:52:49;;;;;;;6.63;2.50;;;24.40;70.10;;;;;;5162013;28;20045;-72
2021/07/12 12:55:26;;;;;;;5.03;2.55;;;24.50;70.30;;;;;;5137461;28;20046;-74
2021/07/12 12:58:11;;;;;;;4.00;2.08;;;24.50;68.80;;;;;;5164321;28;20050;-73
2021/07/12 13:00:43;;;;;;;4.13;2.10;;;24.50;68.60;;;;;;5157981;28;20056;-75
2021/07/12 13:03:16;;;;;;;7.35;2.20;;;24.50;68.40;;;;;;5160878;28;20083;-71
2021/07/12 13:05:59;;;;;;;;;;;24.40;68.60;;;;;;5167981;28;21113;-71
2021/07/12 13:08:31;;;;;;;6.47;2.25;;;24.40;68.70;;;;;;5161788;28;19932;-73
2021/07/12 13:11:04;;;;;;;7.00;2.20;;;24.40;68.90;;;;;;5167327;28;20057;-76
2021/07/12 13:13:37;;;;;;;3.17;2.13;;;24.40;69.10;;;;;;5147227;28;20056;-73
2021/07/12 13:16:12;;;;;;;5.97;2.60;;;24.40;69.10;;;;;;5143040;28;20914;-76
2021/07/12 13:18:49;;;;;;;6.25;2.40;;;24.40;69.00;;;;;;5133179;28;20038;-72
2021/07/12 13:21:48;;;;;;;4.90;2.53;;;24.40;69.20;;;;;;5150029;28;20053;-72
2021/07/12 13:24:50;;;;;;;6.32;3.35;;;24.40;69.30;;;;;;5170057;28;20053;-74
2021/07/12 13:27:23;;;;;;;4.68;2.47;;;24.40;69.30;;;;;;5167562;28;20045;-70
2021/07/12 13:29:58;;;;;;;3.72;2.47;;;24.40;69.30;;;;;;5167335;28;20563;-74
2021/07/12 13:32:30;;;;;;;7.57;2.97;;;24.40;69.80;;;;;;5165109;28;20589;-72
2021/07/12 13:35:06;;;;;;;5.05;2.83;;;24.40;69.20;;;;;;5167606;28;20049;-71